Time;durP1;ratioP1;P1;durP2;ratioP2;P2;SDS_P1;SDS_P2;PMS_P1;PMS_P2;Temp;Humidity;BMP_temperature;BMP_pressure;BME280_temperature;BME280_humidity;BME280_pressure;Samples;Min_cycle;Max_cycle;Signal;HPM_P1;HPM_P2
2022/09/17 00:04:39;;;;;;;4.20;2.60;;;;;;;12.43;86.10;98803.18;657495;1277;140873;-86
2022/09/17 00:19:42;;;;;;;9.60;6.50;;;;;;;12.61;85.75;98789.41;657515;1277;139817;-83
2022/09/17 00:34:47;;;;;;;14.80;6.90;;;;;;;12.73;85.77;98795.48;657197;1277;139803;-84
2022/09/17 00:50:20;;;;;;;7.10;2.20;;;;;;;12.83;85.85;98810.13;657448;1277;139475;-84
2022/09/17 01:06:00;;;;;;;9.00;2.60;;;;;;;12.83;86.51;98815.14;657391;1277;140728;-85
2022/09/17 01:21:24;;;;;;;7.00;2.70;;;;;;;12.88;86.91;98823.41;655109;1279;140794;-85
2022/09/17 01:36:33;;;;;;;4.90;2.30;;;;;;;12.98;86.79;98816.69;657589;1276;139405;-83
2022/09/17 01:51:42;;;;;;;4.60;2.60;;;;;;;12.89;87.45;98811.02;657546;1277;140771;-85
2022/09/17 02:06:52;;;;;;;4.80;2.80;;;;;;;12.80;88.94;98816.59;656609;1277;140813;-86
2022/09/17 02:22:41;;;;;;;6.50;4.30;;;;;;;12.66;91.48;98822.56;656692;1277;140729;-85
2022/09/17 02:37:44;;;;;;;12.50;5.60;;;;;;;12.45;93.67;98824.83;656539;1277;140758;-85
2022/09/17 02:52:56;;;;;;;7.60;4.00;;;;;;;12.22;96.42;98835.73;656796;1277;140975;-85
2022/09/17 03:08:00;;;;;;;9.90;4.00;;;;;;;11.86;98.88;98838.60;657272;1277;140599;-84
2022/09/17 03:23:03;;;;;;;7.30;4.40;;;;;;;11.47;99.48;98839.33;657044;1277;140255;-85
2022/09/17 03:38:06;;;;;;;11.40;4.70;;;;;;;11.07;100.00;98838.48;657124;1277;139816;-85
2022/09/17 03:53:10;;;;;;;8.00;4.60;;;;;;;10.68;100.00;98833.33;657623;1276;140078;-84
2022/09/17 04:08:13;;;;;;;10.60;5.00;;;;;;;10.40;100.00;98831.14;658665;1277;140644;-84
2022/09/17 04:23:16;;;;;;;5.30;4.00;;;;;;;10.23;100.00;98819.61;658547;1278;140870;-83
2022/09/17 04:38:20;;;;;;;11.00;5.30;;;;;;;10.09;100.00;98821.61;661308;1277;139614;-84
2022/09/17 04:53:24;;;;;;;9.10;4.30;;;;;;;10.00;100.00;98828.01;663040;1277;140819;-83
2022/09/17 05:08:27;;;;;;;7.70;4.20;;;;;;;9.98;100.00;98831.36;657229;1277;140462;-83
2022/09/17 05:23:30;;;;;;;7.10;4.70;;;;;;;9.94;100.00;98832.15;657425;1277;140082;-84
2022/09/17 05:38:34;;;;;;;11.60;4.70;;;;;;;10.07;100.00;98821.13;655706;1277;140361;-84
2022/09/17 05:53:37;;;;;;;10.80;5.90;;;;;;;10.44;100.00;98836.45;657500;1277;140808;-86
2022/09/17 06:08:41;;;;;;;5.70;3.00;;;;;;;11.03;100.00;98856.73;657588;1277;139835;-84
2022/09/17 06:23:44;;;;;;;7.70;2.70;;;;;;;11.55;100.00;98884.40;657227;1277;139628;-84
2022/09/17 06:38:47;;;;;;;6.80;2.90;;;;;;;12.17;100.00;98884.20;657007;1277;139542;-82
2022/09/17 06:53:50;;;;;;;4.50;2.50;;;;;;;12.95;99.01;98879.08;657617;1277;140828;-84
2022/09/17 07:08:53;;;;;;;3.60;1.90;;;;;;;13.53;94.56;98867.52;657826;1277;140549;-84
2022/09/17 07:23:57;;;;;;;5.40;2.80;;;;;;;14.09;91.64;98881.67;656817;1276;140311;-84
2022/09/17 07:39:00;;;;;;;8.20;2.20;;;;;;;14.40;89.28;98884.23;657440;1277;141050;-83
2022/09/17 07:54:05;;;;;;;3.80;1.70;;;;;;;14.19;89.18;98889.65;658830;1277;140362;-84
2022/09/17 08:09:09;;;;;;;6.00;1.90;;;;;;;15.25;85.87;98898.57;657408;1277;140363;-83
2022/09/17 08:24:13;;;;;;;4.00;2.00;;;;;;;15.74;82.98;98895.33;657142;1277;140780;-84
2022/09/17 08:39:16;;;;;;;6.60;2.50;;;;;;;15.32;84.09;98906.23;657395;1277;140941;-82
2022/09/17 08:54:41;;;;;;;4.60;2.70;;;;;;;14.45;90.37;98915.02;656034;1277;140303;-84
2022/09/17 09:09:52;;;;;;;6.20;2.40;;;;;;;14.44;92.91;98921.47;657841;1277;140717;-83
2022/09/17 09:25:17;;;;;;;7.00;3.40;;;;;;;14.57;93.80;98930.08;657255;1280;140878;-84
2022/09/17 09:40:31;;;;;;;6.10;2.10;;;;;;;14.60;94.56;98931.39;657485;1277;140235;-83
2022/09/17 09:55:47;;;;;;;5.00;2.40;;;;;;;14.82;94.55;98940.30;657428;1277;140745;-84
2022/09/17 10:10:56;;;;;;;2.70;1.80;;;;;;;15.15;92.07;98952.52;656498;1277;140687;-84
2022/09/17 10:26:00;;;;;;;6.50;3.00;;;;;;;15.44;90.92;98965.48;657408;1277;139842;-84
2022/09/17 10:41:14;;;;;;;5.70;2.50;;;;;;;15.19;90.78;98971.50;657327;1277;139856;-85
2022/09/17 10:56:30;;;;;;;6.80;2.70;;;;;;;15.15;91.95;98986.23;657097;1277;139734;-83
2022/09/17 11:11:57;;;;;;;8.40;4.10;;;;;;;15.47;90.18;98990.25;657435;1277;141102;-83
2022/09/17 11:27:15;;;;;;;4.70;3.50;;;;;;;16.66;86.81;99000.33;655963;1277;138825;-84
2022/09/17 11:42:24;;;;;;;4.30;2.80;;;;;;;17.45;81.14;99008.86;659853;1277;141391;-83
2022/09/17 11:57:34;;;;;;;6.80;2.60;;;;;;;16.75;81.97;99023.88;656777;1277;1508946;-85
2022/09/17 12:12:45;;;;;;;4.80;2.50;;;;;;;16.85;82.87;99016.23;657295;1277;139434;-84
2022/09/17 12:28:15;;;;;;;9.10;3.40;;;;;;;16.94;82.32;99002.21;661054;1277;140812;-83
2022/09/17 12:43:27;;;;;;;3.90;3.20;;;;;;;17.30;81.93;98998.08;657563;1276;139926;-84
2022/09/17 12:58:48;;;;;;;3.40;2.30;;;;;;;17.32;82.34;98995.25;657539;1277;139854;-84
2022/09/17 13:14:27;;;;;;;5.00;3.30;;;;;;;17.49;81.37;98993.55;656358;1277;140724;-85
2022/09/17 13:29:42;;;;;;;4.20;2.40;;;;;;;17.04;82.66;98987.04;655560;1278;140316;-83
2022/09/17 13:44:52;;;;;;;22.80;10.20;;;;;;;17.69;82.53;98981.12;658996;1277;140325;-84
2022/09/17 13:59:58;;;;;;;8.00;3.30;;;;;;;22.71;68.80;98975.45;658694;1277;141062;-85
2022/09/17 14:15:03;;;;;;;6.40;3.80;;;;;;;18.92;70.92;98968.90;666333;1277;139877;-84
2022/09/17 14:30:18;;;;;;;22.60;15.30;;;;;;;17.36;78.07;98962.29;670505;1277;139862;-83
2022/09/17 14:45:24;;;;;;;25.30;12.80;;;;;;;18.03;82.60;98974.64;671607;1277;139163;-83
2022/09/17 15:00:37;;;;;;;8.80;5.20;;;;;;;17.11;85.99;98968.80;671017;1277;141232;-83
2022/09/17 15:15:55;;;;;;;6.70;3.90;;;;;;;19.83;82.03;98971.09;664845;1277;139102;-82
2022/09/17 15:30:58;;;;;;;741.30;531.80;;;;;;;19.01;74.66;98974.61;657827;1277;138709;-84
2022/09/17 15:46:35;;;;;;;9.20;6.50;;;;;;;16.68;80.63;98982.77;657315;1277;138990;-82
2022/09/17 16:02:00;;;;;;;105.90;68.30;;;;;;;14.92;96.70;99001.72;657272;1279;138791;-87
2022/09/17 16:17:20;;;;;;;23.60;14.20;;;;;;;14.60;98.52;98968.42;657597;1277;139731;-92
2022/09/17 16:32:23;;;;;;;13.00;8.50;;;;;;;14.73;99.14;98955.38;658209;1277;139234;-91
2022/09/17 16:47:29;;;;;;;18.30;12.60;;;;;;;14.59;99.28;98964.83;658381;1277;139244;-90
2022/09/17 17:02:33;;;;;;;12.40;6.60;;;;;;;14.24;100.00;98975.50;658610;1277;139179;-89
2022/09/17 17:17:36;;;;;;;9.00;6.10;;;;;;;13.87;100.00;98988.61;658671;1277;139272;-92
2022/09/17 17:32:40;;;;;;;10.20;5.60;;;;;;;13.69;100.00;99020.55;657273;1277;139266;-89
2022/09/17 17:47:44;;;;;;;4.50;3.40;;;;;;;13.46;100.00;99035.55;661467;1276;139681;-88
2022/09/17 18:02:49;;;;;;;819.60;521.60;;;;;;;13.14;100.00;99048.46;661185;1275;139074;-88
2022/09/17 18:17:54;;;;;;;23.50;19.10;;;;;;;13.08;100.00;99045.14;667191;1276;139769;-88
2022/09/17 18:32:58;;;;;;;30.40;16.70;;;;;;;13.06;100.00;99044.70;662323;1277;140832;-88
2022/09/17 18:48:04;;;;;;;27.40;15.20;;;;;;;13.11;100.00;99046.34;663570;1276;139288;-88
2022/09/17 19:03:07;;;;;;;192.90;83.80;;;;;;;13.19;100.00;99033.86;660608;1276;139477;-87
2022/09/17 19:18:12;;;;;;;143.20;63.50;;;;;;;12.88;100.00;99029.04;661863;1277;139972;-89
2022/09/17 19:33:17;;;;;;;23.20;12.20;;;;;;;12.71;100.00;99021.01;665259;1277;139439;-88
2022/09/17 19:48:20;;;;;;;23.10;14.80;;;;;;;12.57;100.00;99020.68;659922;1276;139582;-88
2022/09/17 20:03:28;;;;;;;20.10;9.60;;;;;;;12.50;100.00;99035.72;660817;1276;139328;-88
2022/09/17 20:18:34;;;;;;;14.20;8.20;;;;;;;12.49;100.00;99042.16;659285;1277;139783;-87
2022/09/17 20:33:38;;;;;;;15.60;9.10;;;;;;;12.49;100.00;99038.15;658113;1276;139328;-90
2022/09/17 20:48:41;;;;;;;13.80;8.10;;;;;;;12.50;100.00;99030.29;659226;1277;138968;-86
2022/09/17 21:03:48;;;;;;;15.30;8.40;;;;;;;12.35;100.00;99023.96;658823;1276;139676;-88
2022/09/17 21:19:00;;;;;;;14.60;8.00;;;;;;;12.13;100.00;99031.86;657785;1276;139272;-89
2022/09/17 21:34:07;;;;;;;11.20;6.70;;;;;;;12.08;100.00;99038.81;658130;1277;139259;-88
2022/09/17 21:49:11;;;;;;;18.90;7.70;;;;;;;12.08;100.00;99028.46;658874;1277;139883;-88
2022/09/17 22:04:18;;;;;;;15.10;8.20;;;;;;;11.94;100.00;99038.46;660032;1277;139452;-88
2022/09/17 22:19:23;;;;;;;11.20;6.20;;;;;;;11.91;100.00;99035.77;662888;1276;139515;-89
2022/09/17 22:34:28;;;;;;;12.20;8.50;;;;;;;11.86;100.00;99020.73;661365;1277;139408;-90
2022/09/17 22:49:31;;;;;;;14.60;6.10;;;;;;;11.76;100.00;99003.77;658035;1277;139143;-89
2022/09/17 23:04:34;;;;;;;19.60;8.10;;;;;;;11.80;100.00;98992.80;658455;1277;139093;-88
2022/09/17 23:19:38;;;;;;;13.30;7.10;;;;;;;11.70;100.00;98995.54;657461;1277;139718;-88
2022/09/17 23:34:41;;;;;;;10.30;4.90;;;;;;;11.63;100.00;98991.77;657858;1277;139397;-88
2022/09/17 23:49:44;;;;;;;10.40;6.20;;;;;;;11.66;100.00;98997.55;656832;1277;1675403;-87
